sensor_id;sensor_type;location;lat;lon;timestamp;P1;durP1;ratioP1;P2;durP2;ratioP2
9722;SDS011;4900;49.306;8.500;2022-10-22T00:00:27;3.55;;;1.60;;
9722;SDS011;4900;49.306;8.500;2022-10-22T00:03:30;3.15;;;1.63;;
9722;SDS011;4900;49.306;8.500;2022-10-22T00:06:33;3.50;;;1.60;;
9722;SDS011;4900;49.306;8.500;2022-10-22T00:09:36;3.70;;;1.60;;
9722;SDS011;4900;49.306;8.500;2022-10-22T00:12:39;4.55;;;1.70;;
9722;SDS011;4900;49.306;8.500;2022-10-22T00:15:42;3.55;;;1.90;;
9722;SDS011;4900;49.306;8.500;2022-10-22T00:18:45;3.13;;;2.47;;
9722;SDS011;4900;49.306;8.500;2022-10-22T00:21:48;2.95;;;2.67;;
9722;SDS011;4900;49.306;8.500;2022-10-22T00:24:51;3.03;;;2.67;;
9722;SDS011;4900;49.306;8.500;2022-10-22T00:27:54;3.10;;;2.80;;
9722;SDS011;4900;49.306;8.500;2022-10-22T00:30:57;4.07;;;2.90;;
9722;SDS011;4900;49.306;8.500;2022-10-22T00:34:01;5.20;;;2.50;;
9722;SDS011;4900;49.306;8.500;2022-10-22T00:37:05;3.45;;;2.70;;
9722;SDS011;4900;49.306;8.500;2022-10-22T00:40:08;5.18;;;2.25;;
9722;SDS011;4900;49.306;8.500;2022-10-22T00:43:12;2.45;;;2.10;;
9722;SDS011;4900;49.306;8.500;2022-10-22T00:46:16;3.90;;;1.92;;
9722;SDS011;4900;49.306;8.500;2022-10-22T00:49:19;3.50;;;2.00;;
9722;SDS011;4900;49.306;8.500;2022-10-22T00:52:22;4.00;;;1.98;;
9722;SDS011;4900;49.306;8.500;2022-10-22T00:55:27;3.13;;;2.05;;
9722;SDS011;4900;49.306;8.500;2022-10-22T00:58:32;2.45;;;1.85;;
9722;SDS011;4900;49.306;8.500;2022-10-22T01:01:37;1.77;;;1.67;;
9722;SDS011;4900;49.306;8.500;2022-10-22T01:04:40;2.83;;;1.58;;
9722;SDS011;4900;49.306;8.500;2022-10-22T01:07:48;1.63;;;1.27;;
9722;SDS011;4900;49.306;8.500;2022-10-22T01:11:01;2.30;;;1.30;;
9722;SDS011;4900;49.306;8.500;2022-10-22T01:14:10;3.20;;;1.10;;
9722;SDS011;4900;49.306;8.500;2022-10-22T01:17:37;1.45;;;1.10;;
9722;SDS011;4900;49.306;8.500;2022-10-22T01:21:05;0.98;;;0.98;;
9722;SDS011;4900;49.306;8.500;2022-10-22T01:24:39;1.10;;;1.00;;
9722;SDS011;4900;49.306;8.500;2022-10-22T01:31:13;4.18;;;1.30;;
9722;SDS011;4900;49.306;8.500;2022-10-22T01:34:19;2.22;;;1.95;;
9722;SDS011;4900;49.306;8.500;2022-10-22T01:37:27;2.65;;;2.10;;
9722;SDS011;4900;49.306;8.500;2022-10-22T01:40:32;3.28;;;2.00;;
9722;SDS011;4900;49.306;8.500;2022-10-22T01:43:35;2.85;;;2.10;;
9722;SDS011;4900;49.306;8.500;2022-10-22T01:46:38;2.95;;;1.80;;
9722;SDS011;4900;49.306;8.500;2022-10-22T01:49:49;3.17;;;1.92;;
9722;SDS011;4900;49.306;8.500;2022-10-22T01:59:43;2.42;;;1.40;;
9722;SDS011;4900;49.306;8.500;2022-10-22T02:03:08;3.97;;;1.60;;
9722;SDS011;4900;49.306;8.500;2022-10-22T02:06:18;2.17;;;1.52;;
9722;SDS011;4900;49.306;8.500;2022-10-22T02:09:24;2.95;;;1.40;;
9722;SDS011;4900;49.306;8.500;2022-10-22T02:12:30;2.55;;;1.30;;
9722;SDS011;4900;49.306;8.500;2022-10-22T02:15:35;2.55;;;1.20;;
9722;SDS011;4900;49.306;8.500;2022-10-22T02:18:40;1.42;;;1.20;;
9722;SDS011;4900;49.306;8.500;2022-10-22T02:21:46;3.15;;;1.10;;
9722;SDS011;4900;49.306;8.500;2022-10-22T02:24:49;2.63;;;1.40;;
9722;SDS011;4900;49.306;8.500;2022-10-22T02:31:28;1.90;;;1.70;;
9722;SDS011;4900;49.306;8.500;2022-10-22T02:34:34;3.65;;;1.50;;
9722;SDS011;4900;49.306;8.500;2022-10-22T02:37:36;1.40;;;1.30;;
9722;SDS011;4900;49.306;8.500;2022-10-22T02:40:41;2.50;;;1.38;;
9722;SDS011;4900;49.306;8.500;2022-10-22T02:43:48;1.40;;;1.20;;
9722;SDS011;4900;49.306;8.500;2022-10-22T02:46:55;1.70;;;1.13;;
9722;SDS011;4900;49.306;8.500;2022-10-22T02:49:58;3.65;;;1.33;;
9722;SDS011;4900;49.306;8.500;2022-10-22T02:53:01;2.20;;;1.20;;
9722;SDS011;4900;49.306;8.500;2022-10-22T02:56:05;2.60;;;1.35;;
9722;SDS011;4900;49.306;8.500;2022-10-22T02:59:08;2.28;;;1.30;;
9722;SDS011;4900;49.306;8.500;2022-10-22T03:02:11;2.80;;;1.58;;
9722;SDS011;4900;49.306;8.500;2022-10-22T03:05:14;2.22;;;1.17;;
9722;SDS011;4900;49.306;8.500;2022-10-22T03:08:17;2.65;;;1.30;;
9722;SDS011;4900;49.306;8.500;2022-10-22T03:11:20;2.75;;;1.20;;
9722;SDS011;4900;49.306;8.500;2022-10-22T03:14:23;2.42;;;1.13;;
9722;SDS011;4900;49.306;8.500;2022-10-22T03:17:26;2.05;;;1.30;;
9722;SDS011;4900;49.306;8.500;2022-10-22T03:20:29;1.65;;;1.30;;
9722;SDS011;4900;49.306;8.500;2022-10-22T03:23:32;1.77;;;1.27;;
9722;SDS011;4900;49.306;8.500;2022-10-22T03:26:35;3.13;;;1.60;;
9722;SDS011;4900;49.306;8.500;2022-10-22T03:29:40;3.90;;;1.40;;
9722;SDS011;4900;49.306;8.500;2022-10-22T03:32:44;2.05;;;1.50;;
9722;SDS011;4900;49.306;8.500;2022-10-22T03:35:47;2.35;;;1.55;;
9722;SDS011;4900;49.306;8.500;2022-10-22T03:38:50;2.40;;;1.50;;
9722;SDS011;4900;49.306;8.500;2022-10-22T03:41:53;2.67;;;1.83;;
9722;SDS011;4900;49.306;8.500;2022-10-22T03:44:57;4.45;;;3.05;;
9722;SDS011;4900;49.306;8.500;2022-10-22T03:48:00;4.15;;;2.38;;
9722;SDS011;4900;49.306;8.500;2022-10-22T03:51:03;2.50;;;2.30;;
9722;SDS011;4900;49.306;8.500;2022-10-22T03:54:07;3.08;;;1.70;;
9722;SDS011;4900;49.306;8.500;2022-10-22T03:57:10;3.08;;;1.75;;
9722;SDS011;4900;49.306;8.500;2022-10-22T04:00:13;2.42;;;1.65;;
9722;SDS011;4900;49.306;8.500;2022-10-22T04:03:16;3.88;;;1.33;;
9722;SDS011;4900;49.306;8.500;2022-10-22T04:06:19;2.42;;;1.40;;
9722;SDS011;4900;49.306;8.500;2022-10-22T04:09:22;2.72;;;1.60;;
9722;SDS011;4900;49.306;8.500;2022-10-22T04:12:25;1.95;;;1.52;;
9722;SDS011;4900;49.306;8.500;2022-10-22T04:15:28;2.47;;;1.27;;
9722;SDS011;4900;49.306;8.500;2022-10-22T04:18:32;1.40;;;1.20;;
9722;SDS011;4900;49.306;8.500;2022-10-22T04:21:34;1.80;;;1.17;;
9722;SDS011;4900;49.306;8.500;2022-10-22T04:24:38;1.42;;;1.23;;
9722;SDS011;4900;49.306;8.500;2022-10-22T04:27:41;2.05;;;1.38;;
9722;SDS011;4900;49.306;8.500;2022-10-22T04:30:43;2.65;;;1.50;;
9722;SDS011;4900;49.306;8.500;2022-10-22T04:33:46;2.08;;;1.23;;
9722;SDS011;4900;49.306;8.500;2022-10-22T04:36:53;2.42;;;1.65;;
9722;SDS011;4900;49.306;8.500;2022-10-22T04:39:57;2.17;;;1.48;;
9722;SDS011;4900;49.306;8.500;2022-10-22T04:43:00;3.47;;;1.75;;
9722;SDS011;4900;49.306;8.500;2022-10-22T04:46:03;3.45;;;1.92;;
9722;SDS011;4900;49.306;8.500;2022-10-22T04:49:06;3.92;;;3.05;;
9722;SDS011;4900;49.306;8.500;2022-10-22T04:52:10;4.70;;;2.50;;
9722;SDS011;4900;49.306;8.500;2022-10-22T04:55:14;4.72;;;3.40;;
9722;SDS011;4900;49.306;8.500;2022-10-22T04:58:17;4.25;;;3.28;;
9722;SDS011;4900;49.306;8.500;2022-10-22T05:01:24;6.22;;;3.38;;
9722;SDS011;4900;49.306;8.500;2022-10-22T05:04:29;5.63;;;3.67;;
9722;SDS011;4900;49.306;8.500;2022-10-22T05:07:32;5.03;;;3.47;;
9722;SDS011;4900;49.306;8.500;2022-10-22T05:10:35;4.43;;;3.45;;
9722;SDS011;4900;49.306;8.500;2022-10-22T05:13:38;4.70;;;3.28;;
9722;SDS011;4900;49.306;8.500;2022-10-22T05:16:41;5.03;;;3.00;;
9722;SDS011;4900;49.306;8.500;2022-10-22T05:19:44;5.30;;;3.15;;
9722;SDS011;4900;49.306;8.500;2022-10-22T05:22:47;4.82;;;3.00;;
9722;SDS011;4900;49.306;8.500;2022-10-22T05:25:50;3.88;;;2.95;;
9722;SDS011;4900;49.306;8.500;2022-10-22T05:28:53;4.82;;;3.28;;
9722;SDS011;4900;49.306;8.500;2022-10-22T05:31:56;6.28;;;3.90;;
9722;SDS011;4900;49.306;8.500;2022-10-22T05:34:59;5.63;;;3.08;;
9722;SDS011;4900;49.306;8.500;2022-10-22T05:38:01;6.30;;;3.72;;
9722;SDS011;4900;49.306;8.500;2022-10-22T05:44:12;6.00;;;4.50;;
9722;SDS011;4900;49.306;8.500;2022-10-22T05:47:15;4.88;;;3.60;;
9722;SDS011;4900;49.306;8.500;2022-10-22T05:50:18;5.10;;;3.58;;
9722;SDS011;4900;49.306;8.500;2022-10-22T05:53:21;4.43;;;2.80;;
9722;SDS011;4900;49.306;8.500;2022-10-22T05:56:25;4.35;;;3.83;;
9722;SDS011;4900;49.306;8.500;2022-10-22T05:59:30;4.25;;;3.38;;
9722;SDS011;4900;49.306;8.500;2022-10-22T06:02:32;5.70;;;3.15;;
9722;SDS011;4900;49.306;8.500;2022-10-22T06:05:35;4.35;;;3.78;;
9722;SDS011;4900;49.306;8.500;2022-10-22T06:08:40;5.63;;;5.13;;
9722;SDS011;4900;49.306;8.500;2022-10-22T06:11:43;4.50;;;3.85;;
9722;SDS011;4900;49.306;8.500;2022-10-22T06:14:47;4.03;;;3.50;;
9722;SDS011;4900;49.306;8.500;2022-10-22T06:17:49;4.22;;;3.75;;
9722;SDS011;4900;49.306;8.500;2022-10-22T06:20:52;2.90;;;2.65;;
9722;SDS011;4900;49.306;8.500;2022-10-22T06:23:55;3.28;;;2.58;;
9722;SDS011;4900;49.306;8.500;2022-10-22T06:26:59;2.90;;;2.50;;
9722;SDS011;4900;49.306;8.500;2022-10-22T06:30:02;3.28;;;1.92;;
9722;SDS011;4900;49.306;8.500;2022-10-22T06:33:06;2.85;;;2.30;;
9722;SDS011;4900;49.306;8.500;2022-10-22T06:36:10;2.83;;;2.30;;
9722;SDS011;4900;49.306;8.500;2022-10-22T06:39:15;3.17;;;1.70;;
9722;SDS011;4900;49.306;8.500;2022-10-22T06:42:19;2.03;;;1.88;;
9722;SDS011;4900;49.306;8.500;2022-10-22T06:45:22;2.10;;;1.90;;
9722;SDS011;4900;49.306;8.500;2022-10-22T06:48:25;1.77;;;1.67;;
9722;SDS011;4900;49.306;8.500;2022-10-22T06:51:28;4.15;;;2.08;;
9722;SDS011;4900;49.306;8.500;2022-10-22T06:54:31;3.50;;;2.88;;
9722;SDS011;4900;49.306;8.500;2022-10-22T06:57:35;2.33;;;2.10;;
9722;SDS011;4900;49.306;8.500;2022-10-22T07:00:37;5.03;;;2.80;;
9722;SDS011;4900;49.306;8.500;2022-10-22T07:03:40;3.88;;;2.70;;
9722;SDS011;4900;49.306;8.500;2022-10-22T07:06:44;3.17;;;2.78;;
9722;SDS011;4900;49.306;8.500;2022-10-22T07:09:46;4.30;;;3.90;;
9722;SDS011;4900;49.306;8.500;2022-10-22T07:12:50;5.20;;;4.15;;
9722;SDS011;4900;49.306;8.500;2022-10-22T07:15:53;4.00;;;3.70;;
9722;SDS011;4900;49.306;8.500;2022-10-22T07:18:56;5.78;;;4.13;;
9722;SDS011;4900;49.306;8.500;2022-10-22T07:21:59;4.03;;;3.65;;
9722;SDS011;4900;49.306;8.500;2022-10-22T07:25:03;4.78;;;3.65;;
9722;SDS011;4900;49.306;8.500;2022-10-22T07:28:06;4.30;;;3.35;;
9722;SDS011;4900;49.306;8.500;2022-10-22T07:31:10;4.20;;;3.30;;
9722;SDS011;4900;49.306;8.500;2022-10-22T07:34:14;4.50;;;3.10;;
9722;SDS011;4900;49.306;8.500;2022-10-22T07:37:17;3.83;;;2.40;;
9722;SDS011;4900;49.306;8.500;2022-10-22T07:40:23;3.45;;;2.63;;
9722;SDS011;4900;49.306;8.500;2022-10-22T07:43:26;2.97;;;2.17;;
9722;SDS011;4900;49.306;8.500;2022-10-22T07:46:29;2.63;;;2.15;;
9722;SDS011;4900;49.306;8.500;2022-10-22T07:49:32;2.30;;;1.88;;
9722;SDS011;4900;49.306;8.500;2022-10-22T07:52:35;3.97;;;2.50;;
9722;SDS011;4900;49.306;8.500;2022-10-22T07:55:38;3.70;;;2.30;;
9722;SDS011;4900;49.306;8.500;2022-10-22T07:58:41;4.50;;;2.10;;
9722;SDS011;4900;49.306;8.500;2022-10-22T08:01:44;2.80;;;1.95;;
9722;SDS011;4900;49.306;8.500;2022-10-22T08:04:48;3.00;;;1.90;;
9722;SDS011;4900;49.306;8.500;2022-10-22T08:07:51;3.05;;;2.03;;
9722;SDS011;4900;49.306;8.500;2022-10-22T08:10:55;2.75;;;1.42;;
9722;SDS011;4900;49.306;8.500;2022-10-22T08:14:00;2.25;;;1.60;;
9722;SDS011;4900;49.306;8.500;2022-10-22T08:17:03;2.05;;;1.70;;
9722;SDS011;4900;49.306;8.500;2022-10-22T08:20:06;1.60;;;1.48;;
9722;SDS011;4900;49.306;8.500;2022-10-22T08:23:10;1.50;;;1.40;;
9722;SDS011;4900;49.306;8.500;2022-10-22T08:26:13;2.38;;;1.42;;
9722;SDS011;4900;49.306;8.500;2022-10-22T08:29:16;1.85;;;1.30;;
9722;SDS011;4900;49.306;8.500;2022-10-22T08:32:19;2.03;;;1.35;;
9722;SDS011;4900;49.306;8.500;2022-10-22T08:35:21;2.15;;;1.38;;
9722;SDS011;4900;49.306;8.500;2022-10-22T08:38:24;1.75;;;1.40;;
9722;SDS011;4900;49.306;8.500;2022-10-22T08:41:27;1.65;;;1.40;;
9722;SDS011;4900;49.306;8.500;2022-10-22T08:51:37;3.38;;;1.45;;
9722;SDS011;4900;49.306;8.500;2022-10-22T08:58:02;2.53;;;1.58;;
9722;SDS011;4900;49.306;8.500;2022-10-22T09:01:26;2.38;;;1.50;;
9722;SDS011;4900;49.306;8.500;2022-10-22T09:04:42;1.60;;;1.23;;
9722;SDS011;4900;49.306;8.500;2022-10-22T09:07:52;1.88;;;1.30;;
9722;SDS011;4900;49.306;8.500;2022-10-22T09:14:16;1.13;;;1.02;;
9722;SDS011;4900;49.306;8.500;2022-10-22T09:17:26;2.10;;;1.10;;
9722;SDS011;4900;49.306;8.500;2022-10-22T09:20:37;1.75;;;1.20;;
9722;SDS011;4900;49.306;8.500;2022-10-22T09:27:00;1.77;;;1.10;;
9722;SDS011;4900;49.306;8.500;2022-10-22T09:30:10;1.90;;;1.00;;
9722;SDS011;4900;49.306;8.500;2022-10-22T09:36:28;1.13;;;1.02;;
9722;SDS011;4900;49.306;8.500;2022-10-22T09:39:37;2.50;;;1.05;;
9722;SDS011;4900;49.306;8.500;2022-10-22T09:42:43;1.17;;;1.00;;
9722;SDS011;4900;49.306;8.500;2022-10-22T09:45:56;2.58;;;0.90;;
9722;SDS011;4900;49.306;8.500;2022-10-22T09:49:12;1.42;;;1.00;;
9722;SDS011;4900;49.306;8.500;2022-10-22T09:52:23;1.30;;;1.00;;
9722;SDS011;4900;49.306;8.500;2022-10-22T09:55:30;2.28;;;1.10;;
9722;SDS011;4900;49.306;8.500;2022-10-22T09:58:40;1.65;;;1.15;;
9722;SDS011;4900;49.306;8.500;2022-10-22T10:01:45;2.63;;;1.25;;
9722;SDS011;4900;49.306;8.500;2022-10-22T10:04:48;2.72;;;1.48;;
9722;SDS011;4900;49.306;8.500;2022-10-22T10:07:53;1.10;;;1.00;;
9722;SDS011;4900;49.306;8.500;2022-10-22T10:11:01;1.77;;;1.25;;
9722;SDS011;4900;49.306;8.500;2022-10-22T10:14:12;1.75;;;1.30;;
9722;SDS011;4900;49.306;8.500;2022-10-22T10:20:38;2.53;;;1.60;;
9722;SDS011;4900;49.306;8.500;2022-10-22T10:24:01;3.40;;;1.83;;
9722;SDS011;4900;49.306;8.500;2022-10-22T10:27:24;4.68;;;1.40;;
9722;SDS011;4900;49.306;8.500;2022-10-22T10:30:58;1.70;;;1.30;;
9722;SDS011;4900;49.306;8.500;2022-10-22T10:34:35;2.90;;;1.30;;
9722;SDS011;4900;49.306;8.500;2022-10-22T10:37:55;3.05;;;1.20;;
9722;SDS011;4900;49.306;8.500;2022-10-22T10:41:16;2.40;;;1.10;;
9722;SDS011;4900;49.306;8.500;2022-10-22T10:44:53;1.52;;;1.10;;
9722;SDS011;4900;49.306;8.500;2022-10-22T10:48:11;1.60;;;1.20;;
9722;SDS011;4900;49.306;8.500;2022-10-22T10:51:36;1.38;;;1.27;;
9722;SDS011;4900;49.306;8.500;2022-10-22T10:58:18;2.28;;;1.25;;
9722;SDS011;4900;49.306;8.500;2022-10-22T11:01:25;1.58;;;1.00;;
9722;SDS011;4900;49.306;8.500;2022-10-22T11:11:17;1.55;;;1.27;;
9722;SDS011;4900;49.306;8.500;2022-10-22T11:17:41;3.50;;;1.58;;
9722;SDS011;4900;49.306;8.500;2022-10-22T11:20:52;3.30;;;1.20;;
9722;SDS011;4900;49.306;8.500;2022-10-22T11:24:07;3.28;;;1.30;;
9722;SDS011;4900;49.306;8.500;2022-10-22T11:30:31;3.25;;;1.40;;
9722;SDS011;4900;49.306;8.500;2022-10-22T11:36:54;3.90;;;1.50;;
9722;SDS011;4900;49.306;8.500;2022-10-22T11:43:25;3.88;;;1.30;;
9722;SDS011;4900;49.306;8.500;2022-10-22T11:46:34;2.40;;;1.30;;
9722;SDS011;4900;49.306;8.500;2022-10-22T11:49:42;1.73;;;1.10;;
9722;SDS011;4900;49.306;8.500;2022-10-22T11:56:22;3.65;;;1.27;;
9722;SDS011;4900;49.306;8.500;2022-10-22T11:59:37;1.40;;;1.20;;
9722;SDS011;4900;49.306;8.500;2022-10-22T12:02:42;2.28;;;1.23;;
9722;SDS011;4900;49.306;8.500;2022-10-22T12:05:46;1.70;;;1.30;;
9722;SDS011;4900;49.306;8.500;2022-10-22T12:09:08;2.78;;;1.20;;
9722;SDS011;4900;49.306;8.500;2022-10-22T12:12:13;2.80;;;1.40;;
9722;SDS011;4900;49.306;8.500;2022-10-22T12:15:25;3.20;;;1.48;;
9722;SDS011;4900;49.306;8.500;2022-10-22T12:18:34;2.88;;;1.30;;
9722;SDS011;4900;49.306;8.500;2022-10-22T12:21:44;4.03;;;1.20;;
9722;SDS011;4900;49.306;8.500;2022-10-22T12:24:51;1.77;;;0.98;;
9722;SDS011;4900;49.306;8.500;2022-10-22T12:28:03;3.15;;;1.30;;
9722;SDS011;4900;49.306;8.500;2022-10-22T12:31:13;3.00;;;1.30;;
9722;SDS011;4900;49.306;8.500;2022-10-22T12:34:21;3.20;;;1.30;;
9722;SDS011;4900;49.306;8.500;2022-10-22T12:37:27;2.10;;;1.45;;
9722;SDS011;4900;49.306;8.500;2022-10-22T12:40:32;2.63;;;1.65;;
9722;SDS011;4900;49.306;8.500;2022-10-22T12:43:37;3.65;;;1.40;;
9722;SDS011;4900;49.306;8.500;2022-10-22T12:46:41;2.40;;;1.42;;
9722;SDS011;4900;49.306;8.500;2022-10-22T12:49:47;4.38;;;1.50;;
9722;SDS011;4900;49.306;8.500;2022-10-22T12:52:51;1.98;;;1.23;;
9722;SDS011;4900;49.306;8.500;2022-10-22T12:55:58;2.80;;;1.42;;
9722;SDS011;4900;49.306;8.500;2022-10-22T12:59:07;3.60;;;1.48;;
9722;SDS011;4900;49.306;8.500;2022-10-22T13:02:20;4.55;;;1.38;;
9722;SDS011;4900;49.306;8.500;2022-10-22T13:05:26;4.30;;;1.35;;
9722;SDS011;4900;49.306;8.500;2022-10-22T13:08:35;5.32;;;1.48;;
9722;SDS011;4900;49.306;8.500;2022-10-22T13:11:47;3.10;;;1.30;;
9722;SDS011;4900;49.306;8.500;2022-10-22T13:14:50;1.65;;;1.30;;
9722;SDS011;4900;49.306;8.500;2022-10-22T13:18:31;3.10;;;1.45;;
9722;SDS011;4900;49.306;8.500;2022-10-22T13:24:35;1.90;;;1.27;;
9722;SDS011;4900;49.306;8.500;2022-10-22T13:30:58;2.92;;;1.33;;
9722;SDS011;4900;49.306;8.500;2022-10-22T13:34:11;2.60;;;1.30;;
9722;SDS011;4900;49.306;8.500;2022-10-22T13:37:18;4.57;;;1.50;;
9722;SDS011;4900;49.306;8.500;2022-10-22T13:40:21;2.05;;;1.20;;
9722;SDS011;4900;49.306;8.500;2022-10-22T13:43:24;1.83;;;1.40;;
9722;SDS011;4900;49.306;8.500;2022-10-22T13:46:27;2.58;;;1.30;;
9722;SDS011;4900;49.306;8.500;2022-10-22T13:49:31;3.30;;;1.55;;
9722;SDS011;4900;49.306;8.500;2022-10-22T13:52:38;5.03;;;1.50;;
9722;SDS011;4900;49.306;8.500;2022-10-22T13:55:44;3.53;;;1.65;;
9722;SDS011;4900;49.306;8.500;2022-10-22T13:58:47;5.10;;;1.80;;
9722;SDS011;4900;49.306;8.500;2022-10-22T14:01:50;2.42;;;1.60;;
9722;SDS011;4900;49.306;8.500;2022-10-22T14:04:54;3.25;;;1.60;;
9722;SDS011;4900;49.306;8.500;2022-10-22T14:07:58;4.57;;;1.40;;
9722;SDS011;4900;49.306;8.500;2022-10-22T14:11:02;3.05;;;1.50;;
9722;SDS011;4900;49.306;8.500;2022-10-22T14:14:05;3.30;;;1.63;;
9722;SDS011;4900;49.306;8.500;2022-10-22T14:17:14;5.45;;;2.40;;
9722;SDS011;4900;49.306;8.500;2022-10-22T14:20:19;2.85;;;1.80;;
9722;SDS011;4900;49.306;8.500;2022-10-22T14:23:25;4.38;;;1.65;;
9722;SDS011;4900;49.306;8.500;2022-10-22T14:26:30;3.65;;;1.67;;
9722;SDS011;4900;49.306;8.500;2022-10-22T14:29:35;5.20;;;1.80;;
9722;SDS011;4900;49.306;8.500;2022-10-22T14:32:38;2.60;;;1.60;;
9722;SDS011;4900;49.306;8.500;2022-10-22T14:35:40;2.63;;;1.63;;
9722;SDS011;4900;49.306;8.500;2022-10-22T14:38:45;4.43;;;1.40;;
9722;SDS011;4900;49.306;8.500;2022-10-22T14:41:49;3.47;;;1.60;;
9722;SDS011;4900;49.306;8.500;2022-10-22T14:44:52;3.05;;;1.50;;
9722;SDS011;4900;49.306;8.500;2022-10-22T14:47:55;2.72;;;1.30;;
9722;SDS011;4900;49.306;8.500;2022-10-22T14:50:58;3.35;;;1.40;;
9722;SDS011;4900;49.306;8.500;2022-10-22T14:54:01;3.90;;;1.40;;
9722;SDS011;4900;49.306;8.500;2022-10-22T14:57:04;2.55;;;1.38;;
9722;SDS011;4900;49.306;8.500;2022-10-22T15:00:08;3.22;;;1.40;;
9722;SDS011;4900;49.306;8.500;2022-10-22T15:03:16;2.60;;;1.40;;
9722;SDS011;4900;49.306;8.500;2022-10-22T15:06:19;3.25;;;1.55;;
9722;SDS011;4900;49.306;8.500;2022-10-22T15:09:22;2.85;;;1.42;;
9722;SDS011;4900;49.306;8.500;2022-10-22T15:12:26;2.90;;;1.35;;
9722;SDS011;4900;49.306;8.500;2022-10-22T15:15:29;2.72;;;1.40;;
9722;SDS011;4900;49.306;8.500;2022-10-22T15:18:32;2.58;;;1.27;;
9722;SDS011;4900;49.306;8.500;2022-10-22T15:21:35;3.22;;;1.30;;
9722;SDS011;4900;49.306;8.500;2022-10-22T15:24:39;3.30;;;1.40;;
9722;SDS011;4900;49.306;8.500;2022-10-22T15:27:46;3.88;;;1.60;;
9722;SDS011;4900;49.306;8.500;2022-10-22T15:30:53;2.95;;;1.50;;
9722;SDS011;4900;49.306;8.500;2022-10-22T15:34:00;4.38;;;1.42;;
9722;SDS011;4900;49.306;8.500;2022-10-22T15:37:05;2.60;;;1.40;;
9722;SDS011;4900;49.306;8.500;2022-10-22T15:40:10;2.92;;;1.40;;
9722;SDS011;4900;49.306;8.500;2022-10-22T15:43:14;3.50;;;1.45;;
9722;SDS011;4900;49.306;8.500;2022-10-22T15:46:18;4.50;;;1.50;;
9722;SDS011;4900;49.306;8.500;2022-10-22T15:49:25;3.83;;;1.42;;
9722;SDS011;4900;49.306;8.500;2022-10-22T15:52:30;4.20;;;1.50;;
9722;SDS011;4900;49.306;8.500;2022-10-22T15:55:33;2.47;;;1.60;;
9722;SDS011;4900;49.306;8.500;2022-10-22T15:58:36;3.20;;;1.60;;
9722;SDS011;4900;49.306;8.500;2022-10-22T16:01:39;2.05;;;1.60;;
9722;SDS011;4900;49.306;8.500;2022-10-22T16:04:42;3.00;;;1.73;;
9722;SDS011;4900;49.306;8.500;2022-10-22T16:07:45;3.30;;;1.80;;
9722;SDS011;4900;49.306;8.500;2022-10-22T16:10:48;3.08;;;1.80;;
9722;SDS011;4900;49.306;8.500;2022-10-22T16:13:51;4.25;;;2.00;;
9722;SDS011;4900;49.306;8.500;2022-10-22T16:16:57;4.20;;;2.08;;
9722;SDS011;4900;49.306;8.500;2022-10-22T16:20:01;4.00;;;1.77;;
9722;SDS011;4900;49.306;8.500;2022-10-22T16:23:04;5.63;;;2.42;;
9722;SDS011;4900;49.306;8.500;2022-10-22T16:26:07;3.33;;;2.00;;
9722;SDS011;4900;49.306;8.500;2022-10-22T16:29:10;4.43;;;2.47;;
9722;SDS011;4900;49.306;8.500;2022-10-22T16:32:14;5.20;;;2.30;;
9722;SDS011;4900;49.306;8.500;2022-10-22T16:35:17;5.03;;;2.20;;
9722;SDS011;4900;49.306;8.500;2022-10-22T16:38:20;6.07;;;4.20;;
9722;SDS011;4900;49.306;8.500;2022-10-22T16:41:23;5.50;;;3.45;;
9722;SDS011;4900;49.306;8.500;2022-10-22T16:44:28;6.18;;;3.97;;
9722;SDS011;4900;49.306;8.500;2022-10-22T16:47:31;5.00;;;4.25;;
9722;SDS011;4900;49.306;8.500;2022-10-22T16:50:37;8.25;;;4.72;;
9722;SDS011;4900;49.306;8.500;2022-10-22T16:53:40;7.50;;;4.43;;
9722;SDS011;4900;49.306;8.500;2022-10-22T16:56:44;7.28;;;4.25;;
9722;SDS011;4900;49.306;8.500;2022-10-22T16:59:47;8.50;;;3.80;;
9722;SDS011;4900;49.306;8.500;2022-10-22T17:02:51;4.63;;;3.60;;
9722;SDS011;4900;49.306;8.500;2022-10-22T17:05:57;7.22;;;5.05;;
9722;SDS011;4900;49.306;8.500;2022-10-22T17:09:00;11.57;;;6.10;;
9722;SDS011;4900;49.306;8.500;2022-10-22T17:12:03;9.95;;;7.13;;
9722;SDS011;4900;49.306;8.500;2022-10-22T17:15:07;11.15;;;7.22;;
9722;SDS011;4900;49.306;8.500;2022-10-22T17:18:10;12.10;;;7.88;;
9722;SDS011;4900;49.306;8.500;2022-10-22T17:21:13;9.77;;;6.85;;
9722;SDS011;4900;49.306;8.500;2022-10-22T17:24:16;9.15;;;5.88;;
9722;SDS011;4900;49.306;8.500;2022-10-22T17:27:20;10.75;;;6.10;;
9722;SDS011;4900;49.306;8.500;2022-10-22T17:30:23;9.90;;;5.90;;
9722;SDS011;4900;49.306;8.500;2022-10-22T17:33:27;10.00;;;5.80;;
9722;SDS011;4900;49.306;8.500;2022-10-22T17:36:30;7.88;;;5.55;;
9722;SDS011;4900;49.306;8.500;2022-10-22T17:39:33;8.55;;;5.25;;
9722;SDS011;4900;49.306;8.500;2022-10-22T17:42:36;7.47;;;5.20;;
9722;SDS011;4900;49.306;8.500;2022-10-22T17:45:39;8.18;;;6.22;;
9722;SDS011;4900;49.306;8.500;2022-10-22T17:48:43;18.73;;;13.75;;
9722;SDS011;4900;49.306;8.500;2022-10-22T17:51:46;9.20;;;6.18;;
9722;SDS011;4900;49.306;8.500;2022-10-22T17:54:49;10.57;;;5.32;;
9722;SDS011;4900;49.306;8.500;2022-10-22T17:57:53;10.07;;;5.07;;
9722;SDS011;4900;49.306;8.500;2022-10-22T18:00:56;9.23;;;6.25;;
9722;SDS011;4900;49.306;8.500;2022-10-22T18:04:01;7.82;;;5.68;;
9722;SDS011;4900;49.306;8.500;2022-10-22T18:07:09;7.35;;;5.38;;
9722;SDS011;4900;49.306;8.500;2022-10-22T18:10:13;7.97;;;4.82;;
9722;SDS011;4900;49.306;8.500;2022-10-22T18:13:15;7.72;;;4.15;;
9722;SDS011;4900;49.306;8.500;2022-10-22T18:16:18;6.93;;;4.07;;
9722;SDS011;4900;49.306;8.500;2022-10-22T18:19:22;7.78;;;5.47;;
9722;SDS011;4900;49.306;8.500;2022-10-22T18:22:25;7.72;;;5.57;;
9722;SDS011;4900;49.306;8.500;2022-10-22T18:25:28;10.40;;;6.38;;
9722;SDS011;4900;49.306;8.500;2022-10-22T18:28:33;9.98;;;6.40;;
9722;SDS011;4900;49.306;8.500;2022-10-22T18:31:36;8.25;;;5.30;;
9722;SDS011;4900;49.306;8.500;2022-10-22T18:34:38;12.63;;;6.25;;
9722;SDS011;4900;49.306;8.500;2022-10-22T18:37:41;5.90;;;4.80;;
9722;SDS011;4900;49.306;8.500;2022-10-22T18:40:44;7.82;;;4.95;;
9722;SDS011;4900;49.306;8.500;2022-10-22T18:43:51;9.30;;;5.28;;
9722;SDS011;4900;49.306;8.500;2022-10-22T18:46:55;10.40;;;5.00;;
9722;SDS011;4900;49.306;8.500;2022-10-22T18:49:58;9.45;;;6.07;;
9722;SDS011;4900;49.306;8.500;2022-10-22T18:53:01;10.63;;;7.00;;
9722;SDS011;4900;49.306;8.500;2022-10-22T18:56:04;8.98;;;5.72;;
9722;SDS011;4900;49.306;8.500;2022-10-22T18:59:16;9.63;;;5.55;;
9722;SDS011;4900;49.306;8.500;2022-10-22T19:02:21;8.43;;;5.30;;
9722;SDS011;4900;49.306;8.500;2022-10-22T19:05:24;10.75;;;5.60;;
9722;SDS011;4900;49.306;8.500;2022-10-22T19:08:27;8.70;;;5.43;;
9722;SDS011;4900;49.306;8.500;2022-10-22T19:11:30;14.30;;;9.20;;
9722;SDS011;4900;49.306;8.500;2022-10-22T19:14:34;27.58;;;15.63;;
9722;SDS011;4900;49.306;8.500;2022-10-22T19:17:37;24.00;;;13.80;;
9722;SDS011;4900;49.306;8.500;2022-10-22T19:20:40;15.40;;;9.27;;
9722;SDS011;4900;49.306;8.500;2022-10-22T19:23:46;10.93;;;6.28;;
9722;SDS011;4900;49.306;8.500;2022-10-22T19:26:50;8.13;;;5.30;;
9722;SDS011;4900;49.306;8.500;2022-10-22T19:29:52;7.05;;;4.65;;
9722;SDS011;4900;49.306;8.500;2022-10-22T19:32:55;9.02;;;4.13;;
9722;SDS011;4900;49.306;8.500;2022-10-22T19:36:02;7.45;;;4.25;;
9722;SDS011;4900;49.306;8.500;2022-10-22T19:39:15;5.78;;;3.67;;
9722;SDS011;4900;49.306;8.500;2022-10-22T19:42:19;9.68;;;4.40;;
9722;SDS011;4900;49.306;8.500;2022-10-22T19:45:22;8.88;;;4.03;;
9722;SDS011;4900;49.306;8.500;2022-10-22T19:48:25;6.50;;;3.95;;
9722;SDS011;4900;49.306;8.500;2022-10-22T19:51:31;7.10;;;3.85;;
9722;SDS011;4900;49.306;8.500;2022-10-22T19:54:37;5.40;;;3.70;;
9722;SDS011;4900;49.306;8.500;2022-10-22T19:57:42;9.15;;;3.50;;
9722;SDS011;4900;49.306;8.500;2022-10-22T20:00:45;7.57;;;3.42;;
9722;SDS011;4900;49.306;8.500;2022-10-22T20:03:49;4.85;;;3.60;;
9722;SDS011;4900;49.306;8.500;2022-10-22T20:06:52;7.70;;;4.22;;
9722;SDS011;4900;49.306;8.500;2022-10-22T20:09:56;8.50;;;4.13;;
9722;SDS011;4900;49.306;8.500;2022-10-22T20:12:58;6.85;;;4.43;;
9722;SDS011;4900;49.306;8.500;2022-10-22T20:16:01;7.65;;;4.05;;
9722;SDS011;4900;49.306;8.500;2022-10-22T20:19:05;5.65;;;3.88;;
9722;SDS011;4900;49.306;8.500;2022-10-22T20:22:10;5.28;;;3.80;;
9722;SDS011;4900;49.306;8.500;2022-10-22T20:25:14;4.75;;;3.50;;